sensor_id;sensor_type;location;lat;lon;timestamp;P1;durP1;ratioP1;P2;durP2;ratioP2
76865;SDS011;66647;52.124;5.416;2023-05-07T00:00:58;8.05;;;3.60;;
76865;SDS011;66647;52.124;5.416;2023-05-07T00:03:25;9.82;;;3.42;;
76865;SDS011;66647;52.124;5.416;2023-05-07T00:05:52;6.05;;;3.35;;
76865;SDS011;66647;52.124;5.416;2023-05-07T00:08:19;9.00;;;3.78;;
76865;SDS011;66647;52.124;5.416;2023-05-07T00:10:46;7.90;;;3.50;;
76865;SDS011;66647;52.124;5.416;2023-05-07T00:13:13;8.57;;;4.18;;
76865;SDS011;66647;52.124;5.416;2023-05-07T00:15:40;7.78;;;3.65;;
76865;SDS011;66647;52.124;5.416;2023-05-07T00:18:06;6.97;;;3.42;;
76865;SDS011;66647;52.124;5.416;2023-05-07T00:20:33;6.85;;;4.07;;
76865;SDS011;66647;52.124;5.416;2023-05-07T00:23:01;5.80;;;3.67;;
76865;SDS011;66647;52.124;5.416;2023-05-07T00:25:28;5.88;;;3.40;;
76865;SDS011;66647;52.124;5.416;2023-05-07T00:27:54;7.88;;;3.45;;
76865;SDS011;66647;52.124;5.416;2023-05-07T00:30:21;6.80;;;3.60;;
76865;SDS011;66647;52.124;5.416;2023-05-07T00:32:47;6.38;;;3.92;;
76865;SDS011;66647;52.124;5.416;2023-05-07T00:35:15;6.40;;;3.67;;
76865;SDS011;66647;52.124;5.416;2023-05-07T00:37:41;6.65;;;3.75;;
76865;SDS011;66647;52.124;5.416;2023-05-07T00:40:08;8.18;;;5.32;;
76865;SDS011;66647;52.124;5.416;2023-05-07T00:42:35;7.97;;;3.85;;
76865;SDS011;66647;52.124;5.416;2023-05-07T00:45:03;8.07;;;3.90;;
76865;SDS011;66647;52.124;5.416;2023-05-07T00:47:30;8.68;;;3.42;;
76865;SDS011;66647;52.124;5.416;2023-05-07T00:49:57;6.07;;;3.67;;
76865;SDS011;66647;52.124;5.416;2023-05-07T00:52:25;6.10;;;3.25;;
76865;SDS011;66647;52.124;5.416;2023-05-07T00:54:53;7.55;;;3.58;;
76865;SDS011;66647;52.124;5.416;2023-05-07T00:57:21;6.90;;;3.50;;
76865;SDS011;66647;52.124;5.416;2023-05-07T00:59:48;6.20;;;4.00;;
76865;SDS011;66647;52.124;5.416;2023-05-07T01:02:15;8.27;;;3.50;;
76865;SDS011;66647;52.124;5.416;2023-05-07T01:04:41;7.80;;;4.10;;
76865;SDS011;66647;52.124;5.416;2023-05-07T01:07:08;7.85;;;4.13;;
76865;SDS011;66647;52.124;5.416;2023-05-07T01:09:35;5.72;;;3.28;;
76865;SDS011;66647;52.124;5.416;2023-05-07T01:12:03;6.53;;;3.58;;
76865;SDS011;66647;52.124;5.416;2023-05-07T01:14:30;6.05;;;3.58;;
76865;SDS011;66647;52.124;5.416;2023-05-07T01:16:59;7.75;;;3.63;;
76865;SDS011;66647;52.124;5.416;2023-05-07T01:19:26;6.10;;;3.88;;
76865;SDS011;66647;52.124;5.416;2023-05-07T01:21:56;6.88;;;3.47;;
76865;SDS011;66647;52.124;5.416;2023-05-07T01:24:31;7.75;;;3.47;;
76865;SDS011;66647;52.124;5.416;2023-05-07T01:26:59;6.72;;;3.03;;
76865;SDS011;66647;52.124;5.416;2023-05-07T01:29:30;7.22;;;3.42;;
76865;SDS011;66647;52.124;5.416;2023-05-07T01:31:58;8.48;;;3.25;;
76865;SDS011;66647;52.124;5.416;2023-05-07T01:34:27;7.13;;;3.50;;
76865;SDS011;66647;52.124;5.416;2023-05-07T01:36:56;7.82;;;3.92;;
76865;SDS011;66647;52.124;5.416;2023-05-07T01:39:24;7.55;;;3.88;;
76865;SDS011;66647;52.124;5.416;2023-05-07T01:41:56;6.30;;;4.22;;
76865;SDS011;66647;52.124;5.416;2023-05-07T01:44:23;6.40;;;2.88;;
76865;SDS011;66647;52.124;5.416;2023-05-07T01:46:51;7.07;;;3.60;;
76865;SDS011;66647;52.124;5.416;2023-05-07T01:49:18;9.93;;;4.38;;
76865;SDS011;66647;52.124;5.416;2023-05-07T01:51:44;9.57;;;6.20;;
76865;SDS011;66647;52.124;5.416;2023-05-07T01:54:11;9.80;;;3.30;;
76865;SDS011;66647;52.124;5.416;2023-05-07T01:56:38;8.32;;;3.53;;
76865;SDS011;66647;52.124;5.416;2023-05-07T01:59:04;5.15;;;2.88;;
76865;SDS011;66647;52.124;5.416;2023-05-07T02:01:31;8.27;;;3.40;;
76865;SDS011;66647;52.124;5.416;2023-05-07T02:03:58;6.43;;;3.60;;
76865;SDS011;66647;52.124;5.416;2023-05-07T02:06:27;5.93;;;2.95;;
76865;SDS011;66647;52.124;5.416;2023-05-07T02:08:58;9.57;;;4.03;;
76865;SDS011;66647;52.124;5.416;2023-05-07T02:11:25;6.38;;;3.78;;
76865;SDS011;66647;52.124;5.416;2023-05-07T02:13:51;6.50;;;3.45;;
76865;SDS011;66647;52.124;5.416;2023-05-07T02:16:19;6.90;;;3.47;;
76865;SDS011;66647;52.124;5.416;2023-05-07T02:18:46;7.72;;;3.55;;
76865;SDS011;66647;52.124;5.416;2023-05-07T02:21:12;7.38;;;3.15;;
76865;SDS011;66647;52.124;5.416;2023-05-07T02:23:39;6.18;;;3.10;;
76865;SDS011;66647;52.124;5.416;2023-05-07T02:26:06;7.55;;;3.95;;
76865;SDS011;66647;52.124;5.416;2023-05-07T02:28:32;7.03;;;3.65;;
76865;SDS011;66647;52.124;5.416;2023-05-07T02:31:03;6.03;;;3.55;;
76865;SDS011;66647;52.124;5.416;2023-05-07T02:33:31;6.78;;;3.75;;
76865;SDS011;66647;52.124;5.416;2023-05-07T02:36:08;6.30;;;3.60;;
76865;SDS011;66647;52.124;5.416;2023-05-07T02:38:50;7.57;;;3.97;;
76865;SDS011;66647;52.124;5.416;2023-05-07T02:41:16;6.20;;;3.50;;
76865;SDS011;66647;52.124;5.416;2023-05-07T02:43:42;8.50;;;4.55;;
76865;SDS011;66647;52.124;5.416;2023-05-07T02:46:09;9.75;;;4.10;;
76865;SDS011;66647;52.124;5.416;2023-05-07T02:48:40;7.60;;;3.83;;
76865;SDS011;66647;52.124;5.416;2023-05-07T02:51:07;7.22;;;4.20;;
76865;SDS011;66647;52.124;5.416;2023-05-07T02:53:35;9.15;;;4.63;;
76865;SDS011;66647;52.124;5.416;2023-05-07T02:56:02;7.13;;;4.38;;
76865;SDS011;66647;52.124;5.416;2023-05-07T02:58:29;9.93;;;4.32;;
76865;SDS011;66647;52.124;5.416;2023-05-07T03:00:57;8.15;;;4.43;;
76865;SDS011;66647;52.124;5.416;2023-05-07T03:03:37;10.30;;;4.15;;
76865;SDS011;66647;52.124;5.416;2023-05-07T03:06:04;8.55;;;4.45;;
76865;SDS011;66647;52.124;5.416;2023-05-07T03:08:30;8.60;;;4.65;;
76865;SDS011;66647;52.124;5.416;2023-05-07T03:10:57;7.47;;;4.22;;
76865;SDS011;66647;52.124;5.416;2023-05-07T03:13:23;8.27;;;4.40;;
76865;SDS011;66647;52.124;5.416;2023-05-07T03:15:51;8.75;;;4.80;;
76865;SDS011;66647;52.124;5.416;2023-05-07T03:18:17;9.63;;;4.53;;
76865;SDS011;66647;52.124;5.416;2023-05-07T03:20:44;7.95;;;4.40;;
76865;SDS011;66647;52.124;5.416;2023-05-07T03:23:10;9.00;;;5.28;;
76865;SDS011;66647;52.124;5.416;2023-05-07T03:25:39;9.27;;;5.28;;
76865;SDS011;66647;52.124;5.416;2023-05-07T03:28:05;8.88;;;4.47;;
76865;SDS011;66647;52.124;5.416;2023-05-07T03:30:38;7.38;;;4.18;;
76865;SDS011;66647;52.124;5.416;2023-05-07T03:33:05;13.15;;;4.90;;
76865;SDS011;66647;52.124;5.416;2023-05-07T03:35:31;8.60;;;4.40;;
76865;SDS011;66647;52.124;5.416;2023-05-07T03:37:58;8.02;;;4.50;;
76865;SDS011;66647;52.124;5.416;2023-05-07T03:40:28;8.55;;;4.97;;
76865;SDS011;66647;52.124;5.416;2023-05-07T03:42:55;8.55;;;5.43;;
76865;SDS011;66647;52.124;5.416;2023-05-07T03:45:24;8.82;;;4.78;;
76865;SDS011;66647;52.124;5.416;2023-05-07T03:48:00;9.55;;;4.78;;
76865;SDS011;66647;52.124;5.416;2023-05-07T03:50:27;9.23;;;4.93;;
76865;SDS011;66647;52.124;5.416;2023-05-07T03:52:54;8.00;;;5.32;;
76865;SDS011;66647;52.124;5.416;2023-05-07T03:55:22;8.57;;;5.35;;
76865;SDS011;66647;52.124;5.416;2023-05-07T03:57:53;9.00;;;5.13;;
76865;SDS011;66647;52.124;5.416;2023-05-07T04:00:20;8.93;;;4.78;;
76865;SDS011;66647;52.124;5.416;2023-05-07T04:02:47;9.68;;;5.78;;
76865;SDS011;66647;52.124;5.416;2023-05-07T04:05:18;10.65;;;5.45;;
76865;SDS011;66647;52.124;5.416;2023-05-07T04:07:48;10.50;;;5.07;;
76865;SDS011;66647;52.124;5.416;2023-05-07T04:10:19;10.25;;;5.15;;
76865;SDS011;66647;52.124;5.416;2023-05-07T04:12:48;9.75;;;5.03;;
76865;SDS011;66647;52.124;5.416;2023-05-07T04:15:19;9.82;;;5.97;;
76865;SDS011;66647;52.124;5.416;2023-05-07T04:17:45;9.40;;;5.28;;
76865;SDS011;66647;52.124;5.416;2023-05-07T04:20:15;9.75;;;5.68;;
76865;SDS011;66647;52.124;5.416;2023-05-07T04:22:46;9.27;;;5.32;;
76865;SDS011;66647;52.124;5.416;2023-05-07T04:25:13;11.05;;;5.60;;
76865;SDS011;66647;52.124;5.416;2023-05-07T04:27:40;11.10;;;5.75;;
76865;SDS011;66647;52.124;5.416;2023-05-07T04:30:07;11.15;;;6.63;;
76865;SDS011;66647;52.124;5.416;2023-05-07T04:32:37;8.48;;;4.63;;
76865;SDS011;66647;52.124;5.416;2023-05-07T04:35:05;12.80;;;5.85;;
76865;SDS011;66647;52.124;5.416;2023-05-07T04:37:33;9.60;;;5.75;;
76865;SDS011;66647;52.124;5.416;2023-05-07T04:39:59;9.55;;;5.57;;
76865;SDS011;66647;52.124;5.416;2023-05-07T04:42:26;11.25;;;5.53;;
76865;SDS011;66647;52.124;5.416;2023-05-07T04:44:53;12.20;;;6.45;;
76865;SDS011;66647;52.124;5.416;2023-05-07T04:47:22;11.27;;;6.50;;
76865;SDS011;66647;52.124;5.416;2023-05-07T04:49:49;12.48;;;5.82;;
76865;SDS011;66647;52.124;5.416;2023-05-07T04:52:16;9.60;;;6.03;;
76865;SDS011;66647;52.124;5.416;2023-05-07T04:54:43;10.93;;;6.20;;
76865;SDS011;66647;52.124;5.416;2023-05-07T04:57:09;12.20;;;5.47;;
76865;SDS011;66647;52.124;5.416;2023-05-07T04:59:36;13.18;;;6.55;;
76865;SDS011;66647;52.124;5.416;2023-05-07T05:02:02;11.27;;;6.50;;
76865;SDS011;66647;52.124;5.416;2023-05-07T05:04:30;10.50;;;5.68;;
76865;SDS011;66647;52.124;5.416;2023-05-07T05:06:57;11.00;;;5.95;;
76865;SDS011;66647;52.124;5.416;2023-05-07T05:09:24;11.65;;;6.13;;
76865;SDS011;66647;52.124;5.416;2023-05-07T05:11:51;10.45;;;5.35;;
76865;SDS011;66647;52.124;5.416;2023-05-07T05:14:17;11.30;;;5.35;;
76865;SDS011;66647;52.124;5.416;2023-05-07T05:16:44;9.57;;;6.30;;
76865;SDS011;66647;52.124;5.416;2023-05-07T05:19:11;10.50;;;5.88;;
76865;SDS011;66647;52.124;5.416;2023-05-07T05:21:39;9.07;;;5.13;;
76865;SDS011;66647;52.124;5.416;2023-05-07T05:24:07;11.43;;;6.05;;
76865;SDS011;66647;52.124;5.416;2023-05-07T05:26:34;9.75;;;5.93;;
76865;SDS011;66647;52.124;5.416;2023-05-07T05:29:01;11.63;;;6.22;;
76865;SDS011;66647;52.124;5.416;2023-05-07T05:31:30;10.13;;;5.75;;
76865;SDS011;66647;52.124;5.416;2023-05-07T05:33:56;11.82;;;6.22;;
76865;SDS011;66647;52.124;5.416;2023-05-07T05:36:24;10.88;;;6.35;;
76865;SDS011;66647;52.124;5.416;2023-05-07T05:38:53;11.43;;;5.65;;
76865;SDS011;66647;52.124;5.416;2023-05-07T05:41:21;10.88;;;6.40;;
76865;SDS011;66647;52.124;5.416;2023-05-07T05:43:48;12.38;;;5.93;;
76865;SDS011;66647;52.124;5.416;2023-05-07T05:46:15;12.32;;;7.63;;
76865;SDS011;66647;52.124;5.416;2023-05-07T05:48:42;9.95;;;6.50;;
76865;SDS011;66647;52.124;5.416;2023-05-07T05:51:09;10.95;;;6.18;;
76865;SDS011;66647;52.124;5.416;2023-05-07T05:53:36;11.45;;;6.68;;
76865;SDS011;66647;52.124;5.416;2023-05-07T05:56:04;10.73;;;6.43;;
76865;SDS011;66647;52.124;5.416;2023-05-07T05:58:32;12.45;;;6.85;;
76865;SDS011;66647;52.124;5.416;2023-05-07T06:01:03;12.02;;;6.57;;
76865;SDS011;66647;52.124;5.416;2023-05-07T06:03:30;11.73;;;6.68;;
76865;SDS011;66647;52.124;5.416;2023-05-07T06:05:59;11.45;;;7.45;;
76865;SDS011;66647;52.124;5.416;2023-05-07T06:08:29;10.35;;;6.63;;
76865;SDS011;66647;52.124;5.416;2023-05-07T06:10:56;13.45;;;6.90;;
76865;SDS011;66647;52.124;5.416;2023-05-07T06:13:24;11.43;;;6.90;;
76865;SDS011;66647;52.124;5.416;2023-05-07T06:15:52;13.57;;;6.80;;
76865;SDS011;66647;52.124;5.416;2023-05-07T06:18:19;15.00;;;7.45;;
76865;SDS011;66647;52.124;5.416;2023-05-07T06:20:45;13.40;;;7.28;;
76865;SDS011;66647;52.124;5.416;2023-05-07T06:23:21;14.10;;;7.47;;
76865;SDS011;66647;52.124;5.416;2023-05-07T06:25:48;12.02;;;7.25;;
76865;SDS011;66647;52.124;5.416;2023-05-07T06:28:23;11.52;;;6.97;;
76865;SDS011;66647;52.124;5.416;2023-05-07T06:30:50;17.73;;;7.60;;
76865;SDS011;66647;52.124;5.416;2023-05-07T06:33:17;12.43;;;6.68;;
76865;SDS011;66647;52.124;5.416;2023-05-07T06:35:43;14.48;;;7.00;;
76865;SDS011;66647;52.124;5.416;2023-05-07T06:38:10;11.82;;;7.30;;
76865;SDS011;66647;52.124;5.416;2023-05-07T06:40:39;12.52;;;7.68;;
76865;SDS011;66647;52.124;5.416;2023-05-07T06:43:05;10.60;;;7.35;;
76865;SDS011;66647;52.124;5.416;2023-05-07T06:45:45;13.52;;;7.35;;
76865;SDS011;66647;52.124;5.416;2023-05-07T06:48:12;14.65;;;8.93;;
76865;SDS011;66647;52.124;5.416;2023-05-07T06:50:49;12.98;;;7.72;;
76865;SDS011;66647;52.124;5.416;2023-05-07T06:53:17;13.23;;;7.75;;
76865;SDS011;66647;52.124;5.416;2023-05-07T06:55:43;13.23;;;8.60;;
76865;SDS011;66647;52.124;5.416;2023-05-07T06:58:10;17.48;;;9.55;;
76865;SDS011;66647;52.124;5.416;2023-05-07T07:00:38;14.80;;;8.25;;
76865;SDS011;66647;52.124;5.416;2023-05-07T07:03:05;16.25;;;8.23;;
76865;SDS011;66647;52.124;5.416;2023-05-07T07:05:32;12.70;;;8.05;;
76865;SDS011;66647;52.124;5.416;2023-05-07T07:08:00;14.23;;;8.27;;
76865;SDS011;66647;52.124;5.416;2023-05-07T07:10:27;11.63;;;7.43;;
76865;SDS011;66647;52.124;5.416;2023-05-07T07:12:54;14.65;;;7.65;;
76865;SDS011;66647;52.124;5.416;2023-05-07T07:15:21;12.10;;;8.70;;
76865;SDS011;66647;52.124;5.416;2023-05-07T07:17:48;12.73;;;7.97;;
76865;SDS011;66647;52.124;5.416;2023-05-07T07:20:17;12.35;;;7.57;;
76865;SDS011;66647;52.124;5.416;2023-05-07T07:22:44;12.52;;;7.18;;
76865;SDS011;66647;52.124;5.416;2023-05-07T07:25:11;14.13;;;7.32;;
76865;SDS011;66647;52.124;5.416;2023-05-07T07:27:38;11.38;;;7.53;;
76865;SDS011;66647;52.124;5.416;2023-05-07T07:30:06;13.30;;;7.50;;
76865;SDS011;66647;52.124;5.416;2023-05-07T07:32:36;14.27;;;7.28;;
76865;SDS011;66647;52.124;5.416;2023-05-07T07:35:03;11.05;;;6.63;;
76865;SDS011;66647;52.124;5.416;2023-05-07T07:37:31;10.43;;;7.22;;
76865;SDS011;66647;52.124;5.416;2023-05-07T07:39:57;10.90;;;7.20;;
76865;SDS011;66647;52.124;5.416;2023-05-07T07:42:26;11.68;;;7.13;;
76865;SDS011;66647;52.124;5.416;2023-05-07T07:44:52;11.23;;;6.90;;
76865;SDS011;66647;52.124;5.416;2023-05-07T07:47:21;12.00;;;7.00;;
76865;SDS011;66647;52.124;5.416;2023-05-07T07:49:49;11.63;;;6.93;;
76865;SDS011;66647;52.124;5.416;2023-05-07T07:52:15;14.23;;;6.82;;
76865;SDS011;66647;52.124;5.416;2023-05-07T07:54:44;10.00;;;6.63;;
76865;SDS011;66647;52.124;5.416;2023-05-07T07:57:10;9.82;;;6.43;;
76865;SDS011;66647;52.124;5.416;2023-05-07T07:59:39;11.27;;;7.15;;
76865;SDS011;66647;52.124;5.416;2023-05-07T08:02:07;11.95;;;7.30;;
76865;SDS011;66647;52.124;5.416;2023-05-07T08:04:34;11.38;;;7.10;;
76865;SDS011;66647;52.124;5.416;2023-05-07T08:07:03;12.07;;;6.78;;
76865;SDS011;66647;52.124;5.416;2023-05-07T08:09:33;11.60;;;7.40;;
76865;SDS011;66647;52.124;5.416;2023-05-07T08:12:01;13.25;;;8.77;;
76865;SDS011;66647;52.124;5.416;2023-05-07T08:14:31;14.25;;;8.45;;
76865;SDS011;66647;52.124;5.416;2023-05-07T08:16:59;13.38;;;8.80;;
76865;SDS011;66647;52.124;5.416;2023-05-07T08:19:25;11.57;;;7.45;;
76865;SDS011;66647;52.124;5.416;2023-05-07T08:21:53;12.68;;;8.63;;
76865;SDS011;66647;52.124;5.416;2023-05-07T08:24:21;12.82;;;9.40;;
76865;SDS011;66647;52.124;5.416;2023-05-07T08:26:48;12.85;;;8.23;;
76865;SDS011;66647;52.124;5.416;2023-05-07T08:29:16;14.02;;;8.27;;
76865;SDS011;66647;52.124;5.416;2023-05-07T08:31:42;13.68;;;9.00;;
76865;SDS011;66647;52.124;5.416;2023-05-07T08:34:09;14.55;;;9.20;;
76865;SDS011;66647;52.124;5.416;2023-05-07T08:36:39;13.75;;;9.10;;
76865;SDS011;66647;52.124;5.416;2023-05-07T08:39:09;13.30;;;9.15;;
76865;SDS011;66647;52.124;5.416;2023-05-07T08:41:36;15.68;;;9.82;;
76865;SDS011;66647;52.124;5.416;2023-05-07T08:44:03;15.52;;;9.52;;
76865;SDS011;66647;52.124;5.416;2023-05-07T08:46:39;13.40;;;8.95;;
76865;SDS011;66647;52.124;5.416;2023-05-07T08:49:08;14.32;;;9.10;;
76865;SDS011;66647;52.124;5.416;2023-05-07T08:51:35;15.38;;;10.65;;
76865;SDS011;66647;52.124;5.416;2023-05-07T08:54:02;15.93;;;9.70;;
76865;SDS011;66647;52.124;5.416;2023-05-07T08:56:31;14.40;;;8.45;;
76865;SDS011;66647;52.124;5.416;2023-05-07T08:58:58;14.13;;;9.00;;
76865;SDS011;66647;52.124;5.416;2023-05-07T09:01:27;16.10;;;10.00;;
76865;SDS011;66647;52.124;5.416;2023-05-07T09:03:55;16.70;;;9.85;;
76865;SDS011;66647;52.124;5.416;2023-05-07T09:06:22;15.10;;;9.57;;
76865;SDS011;66647;52.124;5.416;2023-05-07T09:08:52;15.63;;;10.00;;
76865;SDS011;66647;52.124;5.416;2023-05-07T09:11:23;15.85;;;9.82;;
76865;SDS011;66647;52.124;5.416;2023-05-07T09:13:55;15.52;;;10.20;;
76865;SDS011;66647;52.124;5.416;2023-05-07T09:16:24;16.08;;;9.20;;
76865;SDS011;66647;52.124;5.416;2023-05-07T09:18:53;15.93;;;9.55;;
76865;SDS011;66647;52.124;5.416;2023-05-07T09:21:21;13.82;;;9.85;;
76865;SDS011;66647;52.124;5.416;2023-05-07T09:23:51;13.55;;;8.65;;
76865;SDS011;66647;52.124;5.416;2023-05-07T09:26:21;13.98;;;9.00;;
76865;SDS011;66647;52.124;5.416;2023-05-07T09:28:48;15.02;;;8.95;;
76865;SDS011;66647;52.124;5.416;2023-05-07T09:31:16;14.35;;;9.48;;
76865;SDS011;66647;52.124;5.416;2023-05-07T09:33:46;14.30;;;9.50;;
76865;SDS011;66647;52.124;5.416;2023-05-07T09:36:13;13.25;;;8.48;;
76865;SDS011;66647;52.124;5.416;2023-05-07T09:41:10;12.95;;;7.28;;
76865;SDS011;66647;52.124;5.416;2023-05-07T09:43:55;13.80;;;8.40;;
76865;SDS011;66647;52.124;5.416;2023-05-07T09:46:28;13.88;;;8.75;;
76865;SDS011;66647;52.124;5.416;2023-05-07T09:49:00;13.90;;;8.65;;
76865;SDS011;66647;52.124;5.416;2023-05-07T09:51:36;14.60;;;8.27;;
76865;SDS011;66647;52.124;5.416;2023-05-07T09:54:08;13.75;;;8.25;;
76865;SDS011;66647;52.124;5.416;2023-05-07T09:56:38;13.95;;;8.23;;
76865;SDS011;66647;52.124;5.416;2023-05-07T09:59:10;14.35;;;8.90;;
76865;SDS011;66647;52.124;5.416;2023-05-07T10:01:40;14.15;;;9.65;;
76865;SDS011;66647;52.124;5.416;2023-05-07T10:04:09;13.77;;;8.98;;
76865;SDS011;66647;52.124;5.416;2023-05-07T10:06:38;16.67;;;9.43;;
76865;SDS011;66647;52.124;5.416;2023-05-07T10:09:05;14.23;;;8.90;;
76865;SDS011;66647;52.124;5.416;2023-05-07T10:11:32;12.18;;;8.48;;
76865;SDS011;66647;52.124;5.416;2023-05-07T10:14:00;13.32;;;8.88;;
76865;SDS011;66647;52.124;5.416;2023-05-07T10:16:34;16.92;;;9.10;;
76865;SDS011;66647;52.124;5.416;2023-05-07T10:19:05;14.10;;;8.73;;
76865;SDS011;66647;52.124;5.416;2023-05-07T10:21:36;15.15;;;9.82;;
76865;SDS011;66647;52.124;5.416;2023-05-07T10:24:12;12.93;;;8.30;;
76865;SDS011;66647;52.124;5.416;2023-05-07T10:26:46;13.88;;;8.27;;
76865;SDS011;66647;52.124;5.416;2023-05-07T10:34:36;15.02;;;9.10;;
76865;SDS011;66647;52.124;5.416;2023-05-07T10:37:06;13.05;;;8.10;;
76865;SDS011;66647;52.124;5.416;2023-05-07T10:39:34;15.25;;;8.93;;
76865;SDS011;66647;52.124;5.416;2023-05-07T10:42:11;13.18;;;8.20;;
76865;SDS011;66647;52.124;5.416;2023-05-07T10:44:45;14.27;;;8.80;;
76865;SDS011;66647;52.124;5.416;2023-05-07T10:47:19;12.88;;;8.15;;
76865;SDS011;66647;52.124;5.416;2023-05-07T10:52:24;13.45;;;7.85;;
76865;SDS011;66647;52.124;5.416;2023-05-07T11:01:19;11.77;;;8.07;;
76865;SDS011;66647;52.124;5.416;2023-05-07T11:04:20;11.57;;;8.23;;
76865;SDS011;66647;52.124;5.416;2023-05-07T11:07:25;11.05;;;7.63;;
76865;SDS011;66647;52.124;5.416;2023-05-07T11:09:56;12.65;;;7.75;;
76865;SDS011;66647;52.124;5.416;2023-05-07T11:12:51;13.27;;;8.73;;
76865;SDS011;66647;52.124;5.416;2023-05-07T11:15:39;12.85;;;8.52;;
76865;SDS011;66647;52.124;5.416;2023-05-07T11:18:16;12.25;;;8.18;;
76865;SDS011;66647;52.124;5.416;2023-05-07T11:26:14;13.32;;;7.93;;
76865;SDS011;66647;52.124;5.416;2023-05-07T11:28:43;13.98;;;8.18;;
76865;SDS011;66647;52.124;5.416;2023-05-07T11:31:10;11.68;;;8.45;;
76865;SDS011;66647;52.124;5.416;2023-05-07T11:33:40;14.02;;;7.93;;
76865;SDS011;66647;52.124;5.416;2023-05-07T11:36:13;10.57;;;7.25;;
76865;SDS011;66647;52.124;5.416;2023-05-07T11:38:45;15.75;;;8.73;;
76865;SDS011;66647;52.124;5.416;2023-05-07T11:41:11;13.05;;;8.52;;
76865;SDS011;66647;52.124;5.416;2023-05-07T11:43:53;11.90;;;7.72;;
76865;SDS011;66647;52.124;5.416;2023-05-07T11:46:22;12.25;;;7.93;;
76865;SDS011;66647;52.124;5.416;2023-05-07T11:48:49;12.75;;;8.27;;
76865;SDS011;66647;52.124;5.416;2023-05-07T11:51:18;15.23;;;9.00;;
76865;SDS011;66647;52.124;5.416;2023-05-07T11:53:46;12.30;;;8.35;;
76865;SDS011;66647;52.124;5.416;2023-05-07T11:56:14;13.43;;;9.25;;
76865;SDS011;66647;52.124;5.416;2023-05-07T11:58:42;13.82;;;8.43;;
76865;SDS011;66647;52.124;5.416;2023-05-07T12:01:10;12.60;;;8.50;;
76865;SDS011;66647;52.124;5.416;2023-05-07T12:03:41;13.23;;;9.07;;
76865;SDS011;66647;52.124;5.416;2023-05-07T12:06:12;15.93;;;9.75;;
76865;SDS011;66647;52.124;5.416;2023-05-07T12:08:41;14.75;;;9.35;;
76865;SDS011;66647;52.124;5.416;2023-05-07T12:11:24;13.90;;;8.75;;
76865;SDS011;66647;52.124;5.416;2023-05-07T12:13:53;15.27;;;9.32;;
76865;SDS011;66647;52.124;5.416;2023-05-07T12:16:24;14.50;;;8.88;;
76865;SDS011;66647;52.124;5.416;2023-05-07T12:18:52;13.77;;;8.23;;
76865;SDS011;66647;52.124;5.416;2023-05-07T12:21:21;13.50;;;8.18;;
76865;SDS011;66647;52.124;5.416;2023-05-07T12:23:50;16.27;;;8.93;;
76865;SDS011;66647;52.124;5.416;2023-05-07T12:26:18;11.00;;;7.93;;
76865;SDS011;66647;52.124;5.416;2023-05-07T12:28:47;13.98;;;8.18;;
76865;SDS011;66647;52.124;5.416;2023-05-07T12:31:14;10.93;;;8.88;;
76865;SDS011;66647;52.124;5.416;2023-05-07T12:33:42;18.35;;;9.15;;
76865;SDS011;66647;52.124;5.416;2023-05-07T12:36:09;12.48;;;8.15;;
76865;SDS011;66647;52.124;5.416;2023-05-07T12:38:38;12.63;;;8.88;;
76865;SDS011;66647;52.124;5.416;2023-05-07T12:41:07;14.82;;;8.25;;
76865;SDS011;66647;52.124;5.416;2023-05-07T12:43:36;12.18;;;8.00;;
76865;SDS011;66647;52.124;5.416;2023-05-07T12:46:04;12.95;;;7.60;;
76865;SDS011;66647;52.124;5.416;2023-05-07T12:48:32;11.07;;;7.18;;
76865;SDS011;66647;52.124;5.416;2023-05-07T12:50:59;11.60;;;6.97;;
76865;SDS011;66647;52.124;5.416;2023-05-07T12:53:27;9.52;;;6.68;;
76865;SDS011;66647;52.124;5.416;2023-05-07T12:55:56;11.18;;;6.38;;
76865;SDS011;66647;52.124;5.416;2023-05-07T12:58:25;10.18;;;6.57;;
76865;SDS011;66647;52.124;5.416;2023-05-07T13:00:51;10.93;;;6.20;;
76865;SDS011;66647;52.124;5.416;2023-05-07T13:05:54;6.80;;;3.63;;
76865;SDS011;66647;52.124;5.416;2023-05-07T13:08:31;8.90;;;4.82;;
76865;SDS011;66647;52.124;5.416;2023-05-07T13:10:59;10.20;;;5.32;;
76865;SDS011;66647;52.124;5.416;2023-05-07T13:13:33;10.40;;;6.38;;
76865;SDS011;66647;52.124;5.416;2023-05-07T13:16:01;13.40;;;6.15;;
76865;SDS011;66647;52.124;5.416;2023-05-07T13:18:31;11.20;;;5.72;;
76865;SDS011;66647;52.124;5.416;2023-05-07T13:20:59;8.52;;;5.05;;
76865;SDS011;66647;52.124;5.416;2023-05-07T13:23:27;8.20;;;4.93;;
76865;SDS011;66647;52.124;5.416;2023-05-07T13:25:54;12.32;;;7.00;;
76865;SDS011;66647;52.124;5.416;2023-05-07T13:28:22;9.07;;;5.63;;
76865;SDS011;66647;52.124;5.416;2023-05-07T13:30:50;8.57;;;5.32;;
76865;SDS011;66647;52.124;5.416;2023-05-07T13:33:18;8.45;;;4.82;;
76865;SDS011;66647;52.124;5.416;2023-05-07T13:35:45;9.43;;;5.38;;
76865;SDS011;66647;52.124;5.416;2023-05-07T13:38:12;8.07;;;4.60;;
76865;SDS011;66647;52.124;5.416;2023-05-07T13:40:39;8.80;;;5.00;;
76865;SDS011;66647;52.124;5.416;2023-05-07T13:43:05;13.15;;;7.60;;
76865;SDS011;66647;52.124;5.416;2023-05-07T13:45:32;8.20;;;5.57;;
76865;SDS011;66647;52.124;5.416;2023-05-07T13:47:58;10.10;;;5.80;;
76865;SDS011;66647;52.124;5.416;2023-05-07T13:50:27;12.57;;;6.95;;
76865;SDS011;66647;52.124;5.416;2023-05-07T13:52:55;10.80;;;6.35;;
76865;SDS011;66647;52.124;5.416;2023-05-07T13:55:23;10.98;;;7.25;;
76865;SDS011;66647;52.124;5.416;2023-05-07T13:57:59;13.73;;;7.07;;
76865;SDS011;66647;52.124;5.416;2023-05-07T14:00:27;12.07;;;7.68;;
76865;SDS011;66647;52.124;5.416;2023-05-07T14:02:55;12.15;;;6.65;;
76865;SDS011;66647;52.124;5.416;2023-05-07T14:05:22;13.23;;;8.57;;
76865;SDS011;66647;52.124;5.416;2023-05-07T14:07:57;13.23;;;8.40;;
76865;SDS011;66647;52.124;5.416;2023-05-07T14:10:25;12.65;;;7.75;;
76865;SDS011;66647;52.124;5.416;2023-05-07T14:12:52;12.52;;;7.93;;
76865;SDS011;66647;52.124;5.416;2023-05-07T14:15:19;13.85;;;7.78;;
76865;SDS011;66647;52.124;5.416;2023-05-07T14:17:45;10.25;;;6.78;;
76865;SDS011;66647;52.124;5.416;2023-05-07T14:20:13;12.48;;;7.90;;
76865;SDS011;66647;52.124;5.416;2023-05-07T14:22:40;12.68;;;7.43;;
76865;SDS011;66647;52.124;5.416;2023-05-07T14:25:07;12.07;;;7.88;;
76865;SDS011;66647;52.124;5.416;2023-05-07T14:27:35;12.02;;;8.02;;
76865;SDS011;66647;52.124;5.416;2023-05-07T14:30:02;11.68;;;7.18;;
76865;SDS011;66647;52.124;5.416;2023-05-07T14:32:28;10.57;;;7.78;;
76865;SDS011;66647;52.124;5.416;2023-05-07T14:34:55;10.27;;;7.38;;
76865;SDS011;66647;52.124;5.416;2023-05-07T14:37:22;11.05;;;6.97;;
76865;SDS011;66647;52.124;5.416;2023-05-07T14:39:48;12.52;;;8.18;;
76865;SDS011;66647;52.124;5.416;2023-05-07T14:42:16;13.55;;;7.68;;
76865;SDS011;66647;52.124;5.416;2023-05-07T14:44:44;11.70;;;7.03;;
76865;SDS011;66647;52.124;5.416;2023-05-07T14:47:11;12.60;;;7.18;;
76865;SDS011;66647;52.124;5.416;2023-05-07T14:49:38;11.23;;;7.28;;
76865;SDS011;66647;52.124;5.416;2023-05-07T14:52:05;11.90;;;6.40;;
76865;SDS011;66647;52.124;5.416;2023-05-07T14:54:36;9.63;;;5.97;;
76865;SDS011;66647;52.124;5.416;2023-05-07T14:57:05;12.35;;;7.05;;
76865;SDS011;66647;52.124;5.416;2023-05-07T14:59:32;15.40;;;6.47;;
76865;SDS011;66647;52.124;5.416;2023-05-07T15:01:59;15.75;;;8.88;;
76865;SDS011;66647;52.124;5.416;2023-05-07T15:04:32;12.10;;;6.38;;
76865;SDS011;66647;52.124;5.416;2023-05-07T15:06:58;14.13;;;6.43;;
76865;SDS011;66647;52.124;5.416;2023-05-07T15:09:26;10.75;;;6.40;;
76865;SDS011;66647;52.124;5.416;2023-05-07T15:11:52;11.73;;;5.85;;